createdAt,value
2022-10-25T00:00:05.337Z,0.40
2022-10-25T00:02:58.637Z,0.30
2022-10-25T00:05:44.503Z,0.70
2022-10-25T00:08:30.162Z,0.55
2022-10-25T00:11:19.001Z,0.40
2022-10-25T00:14:06.506Z,0.80
2022-10-25T00:16:52.327Z,0.30
2022-10-25T00:19:38.439Z,0.30
2022-10-25T00:22:24.385Z,0.30
2022-10-25T00:25:10.769Z,0.30
2022-10-25T00:27:56.753Z,0.30
2022-10-25T00:30:42.386Z,0.30
2022-10-25T00:33:32.769Z,0.68
2022-10-25T00:36:22.138Z,0.73
2022-10-25T00:39:08.128Z,0.88
2022-10-25T00:41:53.838Z,0.85
2022-10-25T00:44:39.427Z,4.32
2022-10-25T00:47:38.981Z,1.13
2022-10-25T00:50:24.566Z,1.20
2022-10-25T00:53:16.440Z,1.58
2022-10-25T00:56:22.174Z,0.70
2022-10-25T00:59:11.025Z,1.02
2022-10-25T01:01:56.775Z,2.22
2022-10-25T01:04:43.147Z,1.75
2022-10-25T01:07:29.797Z,1.42
2022-10-25T01:10:16.129Z,1.10
2022-10-25T01:13:02.343Z,0.85
2022-10-25T01:16:09.864Z,1.15
2022-10-25T01:18:56.009Z,0.55
2022-10-25T01:21:55.197Z,0.98
2022-10-25T01:24:50.087Z,1.73
2022-10-25T01:28:12.170Z,1.52
2022-10-25T01:31:16.890Z,1.38
2022-10-25T01:34:08.446Z,0.80
2022-10-25T01:37:29.760Z,0.57
2022-10-25T01:40:24.099Z,0.88
2022-10-25T01:43:19.548Z,1.20
2022-10-25T01:46:30.252Z,0.77
2022-10-25T01:49:24.196Z,1.17
2022-10-25T01:52:10.347Z,0.60
2022-10-25T01:54:56.483Z,0.40
2022-10-25T01:58:14.702Z,0.30
2022-10-25T02:01:32.694Z,1.25
2022-10-25T02:04:24.891Z,0.30
2022-10-25T02:07:22.936Z,0.40
2022-10-25T02:10:20.331Z,0.43
2022-10-25T02:13:20.577Z,1.33
2022-10-25T02:16:11.207Z,0.50
2022-10-25T02:19:01.454Z,0.40
2022-10-25T02:21:49.186Z,0.52
2022-10-25T02:24:36.661Z,0.90
2022-10-25T02:27:23.406Z,1.58
2022-10-25T02:30:09.600Z,2.65
2022-10-25T02:32:55.574Z,1.08
2022-10-25T02:35:41.461Z,0.93
2022-10-25T02:38:27.208Z,2.38
2022-10-25T02:41:12.990Z,1.55
2022-10-25T02:43:58.822Z,0.95
2022-10-25T02:46:44.717Z,0.93
2022-10-25T02:49:30.651Z,0.88
2022-10-25T02:52:16.522Z,1.10
2022-10-25T02:55:02.283Z,0.70
2022-10-25T02:57:48.684Z,2.60
2022-10-25T03:00:36.594Z,0.43
2022-10-25T03:03:22.549Z,1.38
2022-10-25T03:06:09.190Z,1.40
2022-10-25T03:08:54.966Z,0.68
2022-10-25T03:11:40.550Z,1.33
2022-10-25T03:14:26.302Z,0.60
2022-10-25T03:17:12.163Z,1.25
2022-10-25T03:19:57.933Z,2.00
2022-10-25T03:22:43.611Z,0.50
2022-10-25T03:25:29.524Z,1.35
2022-10-25T03:28:15.174Z,0.85
2022-10-25T03:31:01.126Z,0.68
2022-10-25T03:33:47.045Z,0.50
2022-10-25T03:36:32.974Z,0.60
2022-10-25T03:39:18.784Z,0.47
2022-10-25T03:42:04.787Z,0.60
2022-10-25T03:44:51.283Z,1.05
2022-10-25T03:47:37.364Z,0.70
2022-10-25T03:50:23.324Z,0.50
2022-10-25T03:53:10.705Z,0.50
2022-10-25T03:55:56.814Z,0.70
2022-10-25T03:58:42.392Z,0.90
2022-10-25T04:01:28.221Z,0.60
2022-10-25T04:04:14.277Z,0.68
2022-10-25T04:06:59.964Z,0.90
2022-10-25T04:09:45.782Z,0.77
2022-10-25T04:12:31.796Z,0.50
2022-10-25T04:15:17.948Z,1.27
2022-10-25T04:18:03.802Z,2.22
2022-10-25T04:20:49.668Z,0.50
2022-10-25T04:23:35.987Z,0.60
2022-10-25T04:26:21.788Z,0.73
2022-10-25T04:29:07.685Z,0.50
2022-10-25T04:31:53.287Z,0.73
2022-10-25T04:34:38.908Z,0.50
2022-10-25T04:37:24.669Z,0.30
2022-10-25T04:40:11.243Z,1.90
2022-10-25T04:42:57.282Z,0.68
2022-10-25T04:45:43.424Z,0.65
2022-10-25T04:48:29.518Z,0.40
2022-10-25T04:51:16.236Z,0.70
2022-10-25T04:54:01.894Z,0.88
2022-10-25T04:56:47.552Z,0.50
2022-10-25T04:59:33.418Z,0.82
2022-10-25T05:02:19.320Z,0.65
2022-10-25T05:05:05.333Z,1.00
2022-10-25T05:07:51.315Z,0.80
2022-10-25T05:10:37.276Z,1.05
2022-10-25T05:13:22.997Z,0.75
2022-10-25T05:16:12.858Z,0.70
2022-10-25T05:18:58.941Z,0.47
2022-10-25T05:21:44.608Z,0.50
2022-10-25T05:24:30.479Z,0.50
2022-10-25T05:27:16.224Z,0.68
2022-10-25T05:30:02.194Z,1.80
2022-10-25T05:32:48.202Z,0.45
2022-10-25T05:35:34.457Z,0.40
2022-10-25T05:38:20.643Z,0.40
2022-10-25T05:41:07.626Z,0.60
2022-10-25T05:43:53.628Z,0.50
2022-10-25T05:46:39.362Z,0.43
2022-10-25T05:49:25.062Z,0.43
2022-10-25T05:52:11.285Z,1.85
2022-10-25T05:54:56.988Z,1.13
2022-10-25T05:57:42.763Z,0.55
2022-10-25T06:00:28.795Z,0.90
2022-10-25T06:03:14.482Z,0.85
2022-10-25T06:06:05.071Z,1.00
2022-10-25T06:08:56.329Z,0.85
2022-10-25T06:11:42.415Z,3.03
2022-10-25T06:14:28.265Z,0.55
2022-10-25T06:17:14.026Z,0.55
2022-10-25T06:19:59.928Z,0.47
2022-10-25T06:22:45.950Z,0.50
2022-10-25T06:25:31.945Z,0.73
2022-10-25T06:28:17.734Z,0.57
2022-10-25T06:31:10.491Z,0.50
2022-10-25T06:33:56.958Z,0.50
2022-10-25T06:36:43.217Z,1.45
2022-10-25T06:39:28.946Z,0.77
2022-10-25T06:42:14.631Z,0.45
2022-10-25T06:45:00.272Z,0.90
2022-10-25T06:47:46.644Z,0.57
2022-10-25T06:50:32.609Z,0.75
2022-10-25T06:53:18.408Z,0.95
2022-10-25T06:56:08.099Z,1.75
2022-10-25T06:58:55.587Z,1.63
2022-10-25T07:01:41.716Z,0.85
2022-10-25T07:04:27.561Z,0.80
2022-10-25T07:07:15.017Z,1.10
2022-10-25T07:10:01.112Z,1.85
2022-10-25T07:12:47.272Z,2.72
2022-10-25T07:15:36.452Z,1.20
2022-10-25T07:18:24.791Z,1.02
2022-10-25T07:21:17.016Z,0.82
2022-10-25T07:24:03.219Z,0.60
2022-10-25T07:26:48.991Z,0.80
2022-10-25T07:29:42.734Z,0.55
2022-10-25T07:32:28.485Z,0.80
2022-10-25T07:35:26.679Z,0.68
2022-10-25T07:38:13.216Z,0.70
2022-10-25T07:40:59.556Z,0.50
2022-10-25T07:43:45.715Z,0.55
2022-10-25T07:46:31.478Z,0.45
2022-10-25T07:49:17.309Z,0.98
2022-10-25T07:52:03.353Z,0.52
2022-10-25T07:54:49.414Z,0.63
2022-10-25T07:57:35.468Z,1.73
2022-10-25T08:00:21.222Z,0.57
2022-10-25T08:03:07.398Z,0.73
2022-10-25T08:05:53.202Z,1.17
2022-10-25T08:08:38.952Z,1.30
2022-10-25T08:11:24.633Z,3.50
2022-10-25T08:14:10.449Z,4.88
2022-10-25T08:16:56.237Z,1.63
2022-10-25T08:19:42.098Z,2.13
2022-10-25T08:22:27.792Z,1.40
2022-10-25T08:25:13.630Z,1.33
2022-10-25T08:27:59.125Z,1.75
2022-10-25T08:30:45.068Z,1.48
2022-10-25T08:33:32.075Z,1.23
2022-10-25T08:36:17.839Z,3.65
2022-10-25T08:39:03.785Z,1.95
2022-10-25T08:41:58.034Z,4.00
2022-10-25T08:45:00.009Z,3.10
2022-10-25T08:47:46.775Z,1.75
2022-10-25T08:50:47.931Z,1.45
2022-10-25T08:53:45.686Z,1.40
2022-10-25T08:56:32.652Z,1.48
2022-10-25T08:59:25.585Z,2.40
2022-10-25T09:02:28.625Z,2.67
2022-10-25T09:05:26.410Z,1.52
2022-10-25T09:08:34.281Z,2.15
2022-10-25T09:11:51.972Z,2.72
2022-10-25T09:14:52.911Z,2.00
2022-10-25T09:17:50.489Z,1.50
2022-10-25T09:20:48.341Z,2.90
2022-10-25T09:23:34.145Z,3.80
2022-10-25T09:26:27.170Z,4.47
2022-10-25T09:29:16.220Z,6.40
2022-10-25T09:32:02.592Z,4.20
2022-10-25T09:34:48.746Z,4.40
2022-10-25T09:37:48.262Z,9.48
2022-10-25T09:40:47.511Z,6.65
2022-10-25T10:01:16.412Z,1.30
2022-10-25T10:04:26.301Z,2.38
2022-10-25T10:07:17.824Z,1.23
2022-10-25T10:10:07.147Z,1.20
2022-10-25T10:15:58.110Z,1.65
2022-10-25T10:18:44.635Z,1.08
2022-10-25T10:21:30.482Z,1.40
2022-10-25T10:24:22.516Z,1.25
2022-10-25T10:27:34.979Z,1.35
2022-10-25T10:30:24.266Z,1.20
2022-10-25T10:33:16.673Z,1.10
2022-10-25T10:36:28.845Z,1.30
2022-10-25T10:39:22.562Z,1.70
2022-10-25T10:42:19.761Z,1.90
2022-10-25T11:01:12.698Z,1.00
2022-10-25T11:04:00.983Z,1.35
2022-10-25T11:06:49.706Z,1.65
2022-10-25T11:09:35.500Z,1.27
2022-10-25T11:12:22.300Z,1.50
2022-10-25T11:15:12.528Z,2.30
2022-10-25T11:18:03.857Z,2.53
2022-10-25T11:20:49.835Z,2.00
2022-10-25T11:24:00.259Z,1.85
2022-10-25T11:26:58.292Z,1.88
2022-10-25T11:30:05.479Z,1.83
2022-10-25T11:33:17.477Z,1.50
2022-10-25T11:36:49.166Z,1.35
2022-10-25T11:40:02.840Z,1.75
2022-10-25T11:42:51.755Z,1.80
2022-10-25T11:45:45.180Z,1.55
2022-10-25T11:48:46.472Z,1.63
2022-10-25T11:52:22.174Z,2.92
2022-10-25T11:55:18.126Z,1.58
2022-10-25T11:58:16.685Z,1.77
2022-10-25T12:01:21.361Z,2.10
2022-10-25T12:04:37.781Z,2.78
2022-10-25T12:07:32.228Z,1.98
2022-10-25T12:10:40.564Z,1.27
2022-10-25T12:13:42.795Z,1.70
2022-10-25T12:16:30.023Z,1.85
2022-10-25T12:19:24.296Z,1.63
2022-10-25T12:22:17.267Z,3.72
2022-10-25T12:25:14.164Z,1.58
2022-10-25T12:28:12.138Z,1.33
2022-10-25T12:31:21.197Z,1.38
2022-10-25T12:34:21.346Z,1.65
2022-10-25T12:38:16.955Z,1.42
2022-10-25T12:49:01.164Z,1.48
2022-10-25T12:52:08.609Z,0.80
2022-10-25T12:55:05.312Z,1.20
2022-10-25T12:58:00.493Z,0.55
2022-10-25T13:01:21.204Z,0.85
2022-10-25T13:04:32.243Z,1.05
2022-10-25T13:07:18.373Z,1.20
2022-10-25T13:10:17.669Z,0.60
2022-10-25T13:13:05.055Z,0.50
2022-10-25T13:16:00.036Z,0.50
2022-10-25T13:18:47.595Z,0.82
2022-10-25T13:21:55.097Z,0.68
2022-10-25T13:24:45.025Z,0.32
2022-10-25T13:27:32.359Z,0.30
2022-10-25T13:30:31.965Z,0.85
2022-10-25T13:33:19.315Z,0.70
2022-10-25T13:36:05.871Z,0.60
2022-10-25T13:39:04.631Z,0.50
2022-10-25T13:41:50.435Z,2.25
2022-10-25T13:44:52.533Z,0.50
2022-10-25T13:47:43.913Z,0.60
2022-10-25T13:50:33.267Z,0.85
2022-10-25T13:53:27.081Z,0.50
2022-10-25T13:56:18.002Z,0.47
2022-10-25T13:59:04.204Z,0.65
2022-10-25T14:01:52.579Z,0.57
2022-10-25T14:04:38.894Z,0.70
2022-10-25T14:07:44.969Z,0.40
2022-10-25T14:10:35.430Z,0.30
2022-10-25T14:13:55.998Z,0.45
2022-10-25T14:17:06.949Z,0.30
2022-10-25T14:19:55.381Z,0.30
2022-10-25T14:22:43.034Z,0.20
2022-10-25T14:25:39.470Z,0.25
2022-10-25T14:28:33.684Z,0.17
2022-10-25T14:34:17.214Z,0.20
2022-10-25T14:37:03.224Z,0.30
2022-10-25T14:39:52.986Z,0.20
2022-10-25T14:42:38.938Z,0.20
2022-10-25T14:45:26.364Z,0.20
2022-10-25T14:48:14.394Z,0.30
2022-10-25T14:51:05.170Z,0.93
2022-10-25T14:54:01.091Z,0.30
2022-10-25T14:56:50.406Z,0.65
2022-10-25T14:59:48.803Z,0.40
2022-10-25T15:02:40.013Z,0.20
2022-10-25T15:05:26.309Z,0.30
2022-10-25T15:08:18.483Z,0.40
2022-10-25T15:11:10.279Z,0.40
2022-10-25T15:13:56.456Z,0.50
2022-10-25T15:16:42.546Z,0.40
2022-10-25T15:19:32.679Z,0.30
2022-10-25T15:22:20.709Z,0.75
2022-10-25T15:25:32.315Z,0.50
2022-10-25T15:28:19.062Z,0.38
2022-10-25T15:31:14.776Z,0.40
2022-10-25T15:34:05.270Z,0.68
2022-10-25T15:36:51.137Z,0.50
2022-10-25T15:39:37.149Z,0.40
2022-10-25T15:42:24.557Z,0.30
2022-10-25T15:45:14.241Z,0.50
2022-10-25T15:48:00.438Z,0.30
2022-10-25T15:50:59.885Z,0.30
2022-10-25T15:53:45.814Z,0.30
2022-10-25T15:56:31.676Z,0.35
2022-10-25T15:59:17.657Z,0.40
2022-10-25T16:02:04.391Z,0.40
2022-10-25T16:04:50.649Z,0.63
2022-10-25T16:07:36.601Z,0.30
2022-10-25T16:10:24.232Z,0.55
2022-10-25T16:13:12.489Z,0.68
2022-10-25T16:15:59.022Z,0.47
2022-10-25T16:18:45.875Z,0.40
2022-10-25T16:21:31.906Z,0.88
2022-10-25T16:24:18.246Z,0.38
2022-10-25T16:27:04.492Z,2.35
2022-10-25T16:29:50.141Z,0.47
2022-10-25T16:32:35.826Z,0.47
2022-10-25T16:35:24.284Z,0.80
2022-10-25T16:41:01.416Z,0.40
2022-10-25T16:43:49.169Z,0.63
2022-10-25T16:46:35.293Z,0.40
2022-10-25T16:49:21.173Z,0.57
2022-10-25T16:52:06.752Z,0.40
2022-10-25T16:54:52.528Z,0.40
2022-10-25T16:57:38.908Z,0.40
2022-10-25T17:00:25.674Z,0.55
2022-10-25T17:03:11.918Z,0.57
2022-10-25T17:06:00.517Z,0.90
2022-10-25T17:08:51.783Z,1.10
2022-10-25T17:11:37.676Z,1.67
2022-10-25T17:14:23.587Z,1.02
2022-10-25T17:17:09.817Z,1.73
2022-10-25T17:19:55.834Z,0.65
2022-10-25T17:28:47.297Z,0.90
2022-10-25T17:37:07.633Z,0.88
2022-10-25T17:39:53.711Z,2.55
2022-10-25T17:42:40.129Z,1.00
2022-10-25T17:59:15.200Z,1.00
2022-10-25T18:02:01.268Z,0.90
2022-10-25T18:05:02.170Z,0.68
2022-10-25T18:07:58.472Z,0.60
2022-10-25T18:10:44.652Z,0.60
2022-10-25T18:13:30.699Z,0.60
2022-10-25T18:16:17.249Z,0.55
2022-10-25T18:19:04.887Z,0.80
2022-10-25T18:21:50.903Z,0.47
2022-10-25T18:24:38.549Z,0.60
2022-10-25T18:27:24.382Z,0.50
2022-10-25T18:30:11.233Z,1.13
2022-10-25T18:32:57.301Z,0.95
2022-10-25T18:35:43.374Z,0.80
2022-10-25T18:38:29.515Z,0.50
2022-10-25T18:41:23.023Z,1.58
2022-10-25T18:44:14.262Z,1.00
2022-10-25T18:47:02.437Z,0.93
2022-10-25T18:49:48.899Z,0.63
2022-10-25T18:52:34.841Z,1.02
2022-10-25T18:55:26.708Z,0.40
2022-10-25T18:58:15.084Z,0.30
2022-10-25T19:01:12.677Z,0.75
2022-10-25T19:04:00.437Z,0.77
2022-10-25T19:06:46.282Z,1.10
2022-10-25T19:09:32.137Z,0.40
2022-10-25T19:12:18.512Z,0.40
2022-10-25T19:15:04.775Z,0.47
2022-10-25T19:17:52.065Z,0.57
2022-10-25T19:20:38.877Z,0.30
2022-10-25T19:23:26.611Z,0.70
2022-10-25T19:26:16.134Z,0.57
2022-10-25T19:29:02.312Z,0.88
2022-10-25T19:31:48.117Z,0.35
2022-10-25T19:34:34.393Z,0.43
2022-10-25T19:37:20.573Z,0.35
2022-10-25T19:40:08.182Z,0.38
2022-10-25T19:42:54.100Z,0.30
2022-10-25T19:45:43.421Z,0.80
2022-10-25T19:48:29.162Z,0.40
2022-10-25T19:51:17.830Z,0.30
2022-10-25T19:54:04.113Z,0.68
2022-10-25T19:56:51.247Z,0.30
2022-10-25T19:59:37.019Z,0.73
2022-10-25T20:02:22.954Z,0.73
2022-10-25T20:05:09.292Z,0.20
2022-10-25T20:07:55.339Z,1.45
2022-10-25T20:10:41.410Z,0.98
2022-10-25T20:13:27.003Z,2.35
2022-10-25T20:16:16.567Z,2.78
2022-10-25T20:19:03.752Z,1.08
2022-10-25T20:21:49.943Z,0.82
2022-10-25T20:24:35.919Z,1.27
2022-10-25T20:27:21.623Z,1.15
2022-10-25T20:30:07.518Z,0.63
2022-10-25T20:32:53.651Z,0.43
2022-10-25T20:35:41.702Z,0.82
2022-10-25T20:38:27.378Z,0.60
2022-10-25T20:41:15.402Z,0.98
2022-10-25T20:44:03.817Z,0.60
2022-10-25T20:46:50.497Z,0.60
2022-10-25T20:49:36.502Z,0.45
2022-10-25T20:52:22.700Z,0.73
2022-10-25T20:55:09.154Z,0.68
2022-10-25T20:57:55.176Z,0.80
2022-10-25T21:00:40.934Z,0.40
2022-10-25T21:03:28.170Z,1.25
2022-10-25T21:06:14.556Z,0.47
2022-10-25T21:09:00.481Z,0.63
2022-10-25T21:11:47.664Z,1.05
2022-10-25T21:14:33.530Z,0.63
2022-10-25T21:17:19.389Z,0.82
2022-10-25T21:20:05.864Z,0.55
2022-10-25T21:22:51.683Z,0.70
2022-10-25T21:25:37.605Z,0.52
2022-10-25T21:28:23.292Z,1.17
2022-10-25T21:31:14.044Z,0.60
2022-10-25T21:34:01.035Z,0.50
2022-10-25T21:36:46.753Z,0.88
2022-10-25T21:39:32.593Z,0.60
2022-10-25T21:42:18.411Z,1.23
2022-10-25T21:45:04.283Z,1.05
2022-10-25T21:47:50.450Z,0.88
2022-10-25T21:50:36.815Z,0.70
2022-10-25T21:53:22.792Z,0.70
2022-10-25T21:56:15.977Z,1.10
2022-10-25T21:59:01.998Z,0.50
2022-10-25T22:01:47.953Z,0.57
2022-10-25T22:04:34.171Z,0.55
2022-10-25T22:07:19.949Z,0.30
2022-10-25T22:10:06.047Z,0.40
2022-10-25T22:12:54.957Z,0.98
2022-10-25T22:15:40.946Z,0.73
2022-10-25T22:18:26.782Z,1.83
2022-10-25T22:21:12.958Z,1.33
2022-10-25T22:23:58.777Z,1.10
2022-10-25T22:26:45.817Z,0.75
2022-10-25T22:29:31.760Z,0.73
2022-10-25T22:32:17.380Z,0.88
2022-10-25T22:35:03.111Z,0.70
2022-10-25T22:37:49.255Z,0.50
2022-10-25T22:40:35.197Z,0.82
2022-10-25T22:43:21.140Z,0.90
2022-10-25T22:46:10.041Z,0.70
2022-10-25T22:48:58.777Z,1.40
2022-10-25T22:51:47.120Z,1.00
2022-10-25T22:54:32.913Z,0.50
2022-10-25T22:57:18.494Z,0.55
2022-10-25T23:00:04.630Z,0.98
2022-10-25T23:02:50.547Z,0.77
2022-10-25T23:05:36.464Z,1.42
2022-10-25T23:08:22.157Z,1.20
2022-10-25T23:11:10.934Z,0.70
2022-10-25T23:13:57.548Z,0.55
2022-10-25T23:16:43.431Z,0.70
2022-10-25T23:19:29.119Z,0.50
2022-10-25T23:22:14.795Z,0.40
2022-10-25T23:25:00.449Z,0.57
2022-10-25T23:27:46.395Z,0.50
2022-10-25T23:30:35.125Z,0.55
2022-10-25T23:33:21.176Z,0.57
2022-10-25T23:36:11.719Z,0.60
2022-10-25T23:38:58.320Z,0.40
2022-10-25T23:41:44.228Z,1.50
2022-10-25T23:44:30.219Z,0.50
2022-10-25T23:47:15.821Z,1.13
2022-10-25T23:50:01.528Z,0.47
2022-10-25T23:52:47.689Z,0.30
2022-10-25T23:55:51.872Z,0.50
2022-10-25T23:58:38.757Z,1.13
